sensor_id;sensor_type;location;lat;lon;timestamp;P1;durP1;ratioP1;P2;durP2;ratioP2
35893;SDS011;21994;48.204;16.516;2022-07-05T00:00:10;3.85;;;2.63;;
35893;SDS011;21994;48.204;16.516;2022-07-05T00:02:36;3.47;;;2.63;;
35893;SDS011;21994;48.204;16.516;2022-07-05T00:05:02;5.00;;;2.67;;
35893;SDS011;21994;48.204;16.516;2022-07-05T00:07:29;4.82;;;2.70;;
35893;SDS011;21994;48.204;16.516;2022-07-05T00:09:55;7.35;;;3.30;;
35893;SDS011;21994;48.204;16.516;2022-07-05T00:12:23;4.15;;;2.78;;
35893;SDS011;21994;48.204;16.516;2022-07-05T00:14:52;2.87;;;2.03;;
35893;SDS011;21994;48.204;16.516;2022-07-05T00:17:19;5.78;;;2.95;;
35893;SDS011;21994;48.204;16.516;2022-07-05T00:19:45;4.93;;;2.42;;
35893;SDS011;21994;48.204;16.516;2022-07-05T00:22:11;7.82;;;3.03;;
35893;SDS011;21994;48.204;16.516;2022-07-05T00:24:38;4.28;;;2.72;;
35893;SDS011;21994;48.204;16.516;2022-07-05T00:27:04;3.08;;;2.50;;
35893;SDS011;21994;48.204;16.516;2022-07-05T00:29:30;5.63;;;3.05;;
35893;SDS011;21994;48.204;16.516;2022-07-05T00:31:56;5.63;;;3.22;;
35893;SDS011;21994;48.204;16.516;2022-07-05T00:34:23;4.72;;;2.60;;
35893;SDS011;21994;48.204;16.516;2022-07-05T00:36:49;4.03;;;2.72;;
35893;SDS011;21994;48.204;16.516;2022-07-05T00:39:15;5.88;;;3.00;;
35893;SDS011;21994;48.204;16.516;2022-07-05T00:41:42;3.70;;;2.70;;
35893;SDS011;21994;48.204;16.516;2022-07-05T00:44:09;4.35;;;2.53;;
35893;SDS011;21994;48.204;16.516;2022-07-05T00:46:37;4.15;;;2.83;;
35893;SDS011;21994;48.204;16.516;2022-07-05T00:49:04;6.22;;;3.10;;
35893;SDS011;21994;48.204;16.516;2022-07-05T00:51:31;3.60;;;2.60;;
35893;SDS011;21994;48.204;16.516;2022-07-05T00:54:00;4.18;;;2.95;;
35893;SDS011;21994;48.204;16.516;2022-07-05T00:56:27;5.43;;;3.00;;
35893;SDS011;21994;48.204;16.516;2022-07-05T00:58:53;5.20;;;3.22;;
35893;SDS011;21994;48.204;16.516;2022-07-05T01:01:20;7.28;;;3.35;;
35893;SDS011;21994;48.204;16.516;2022-07-05T01:03:47;4.85;;;2.53;;
35893;SDS011;21994;48.204;16.516;2022-07-05T01:06:13;4.00;;;2.45;;
35893;SDS011;21994;48.204;16.516;2022-07-05T01:08:40;4.97;;;3.10;;
35893;SDS011;21994;48.204;16.516;2022-07-05T01:11:07;4.95;;;3.30;;
35893;SDS011;21994;48.204;16.516;2022-07-05T01:13:35;4.57;;;2.92;;
35893;SDS011;21994;48.204;16.516;2022-07-05T01:16:01;5.22;;;2.60;;
35893;SDS011;21994;48.204;16.516;2022-07-05T01:18:29;7.28;;;2.53;;
35893;SDS011;21994;48.204;16.516;2022-07-05T01:20:57;5.00;;;3.22;;
35893;SDS011;21994;48.204;16.516;2022-07-05T01:23:28;5.45;;;2.90;;
35893;SDS011;21994;48.204;16.516;2022-07-05T01:28:23;5.55;;;2.80;;
35893;SDS011;21994;48.204;16.516;2022-07-05T01:30:50;4.63;;;2.25;;
35893;SDS011;21994;48.204;16.516;2022-07-05T01:33:17;7.38;;;3.13;;
35893;SDS011;21994;48.204;16.516;2022-07-05T01:35:43;3.22;;;2.75;;
35893;SDS011;21994;48.204;16.516;2022-07-05T01:38:10;5.75;;;2.60;;
35893;SDS011;21994;48.204;16.516;2022-07-05T01:40:37;4.22;;;2.70;;
35893;SDS011;21994;48.204;16.516;2022-07-05T01:43:03;3.42;;;2.80;;
35893;SDS011;21994;48.204;16.516;2022-07-05T01:45:30;4.07;;;2.55;;
35893;SDS011;21994;48.204;16.516;2022-07-05T01:48:14;3.75;;;2.33;;
35893;SDS011;21994;48.204;16.516;2022-07-05T01:50:46;5.88;;;2.72;;
35893;SDS011;21994;48.204;16.516;2022-07-05T01:53:24;4.22;;;2.83;;
35893;SDS011;21994;48.204;16.516;2022-07-05T01:55:55;5.97;;;2.75;;
35893;SDS011;21994;48.204;16.516;2022-07-05T01:58:27;7.32;;;3.42;;
35893;SDS011;21994;48.204;16.516;2022-07-05T02:03:21;5.18;;;2.80;;
35893;SDS011;21994;48.204;16.516;2022-07-05T02:05:48;7.07;;;3.35;;
35893;SDS011;21994;48.204;16.516;2022-07-05T02:08:15;4.38;;;2.45;;
35893;SDS011;21994;48.204;16.516;2022-07-05T02:10:42;3.25;;;2.63;;
35893;SDS011;21994;48.204;16.516;2022-07-05T02:13:09;4.75;;;3.13;;
35893;SDS011;21994;48.204;16.516;2022-07-05T02:15:37;5.38;;;3.17;;
35893;SDS011;21994;48.204;16.516;2022-07-05T02:18:06;5.22;;;3.15;;
35893;SDS011;21994;48.204;16.516;2022-07-05T02:20:34;7.32;;;3.08;;
35893;SDS011;21994;48.204;16.516;2022-07-05T02:23:03;5.80;;;2.95;;
35893;SDS011;21994;48.204;16.516;2022-07-05T02:25:29;4.47;;;2.85;;
35893;SDS011;21994;48.204;16.516;2022-07-05T02:27:55;8.43;;;3.20;;
35893;SDS011;21994;48.204;16.516;2022-07-05T02:30:21;5.45;;;3.08;;
35893;SDS011;21994;48.204;16.516;2022-07-05T02:32:47;5.72;;;2.97;;
35893;SDS011;21994;48.204;16.516;2022-07-05T02:35:13;6.32;;;3.67;;
35893;SDS011;21994;48.204;16.516;2022-07-05T02:37:40;7.15;;;3.08;;
35893;SDS011;21994;48.204;16.516;2022-07-05T02:40:06;5.00;;;3.08;;
35893;SDS011;21994;48.204;16.516;2022-07-05T02:42:35;6.50;;;3.10;;
35893;SDS011;21994;48.204;16.516;2022-07-05T02:45:03;4.97;;;2.85;;
35893;SDS011;21994;48.204;16.516;2022-07-05T02:47:30;8.38;;;3.97;;
35893;SDS011;21994;48.204;16.516;2022-07-05T02:49:58;8.73;;;3.65;;
35893;SDS011;21994;48.204;16.516;2022-07-05T02:52:27;6.50;;;3.88;;
35893;SDS011;21994;48.204;16.516;2022-07-05T02:54:53;7.13;;;4.30;;
35893;SDS011;21994;48.204;16.516;2022-07-05T02:57:19;5.90;;;3.65;;
35893;SDS011;21994;48.204;16.516;2022-07-05T02:59:45;6.10;;;3.92;;
35893;SDS011;21994;48.204;16.516;2022-07-05T03:02:11;6.45;;;3.75;;
35893;SDS011;21994;48.204;16.516;2022-07-05T03:04:37;7.68;;;4.28;;
35893;SDS011;21994;48.204;16.516;2022-07-05T03:07:03;7.78;;;3.75;;
35893;SDS011;21994;48.204;16.516;2022-07-05T03:09:29;5.60;;;3.53;;
35893;SDS011;21994;48.204;16.516;2022-07-05T03:11:55;5.25;;;2.78;;
35893;SDS011;21994;48.204;16.516;2022-07-05T03:14:21;7.65;;;3.47;;
35893;SDS011;21994;48.204;16.516;2022-07-05T03:16:46;4.70;;;3.10;;
35893;SDS011;21994;48.204;16.516;2022-07-05T03:19:12;6.05;;;3.53;;
35893;SDS011;21994;48.204;16.516;2022-07-05T03:21:38;4.10;;;3.00;;
35893;SDS011;21994;48.204;16.516;2022-07-05T03:24:04;4.40;;;2.53;;
35893;SDS011;21994;48.204;16.516;2022-07-05T03:26:30;5.85;;;2.75;;
35893;SDS011;21994;48.204;16.516;2022-07-05T03:28:56;6.40;;;3.45;;
35893;SDS011;21994;48.204;16.516;2022-07-05T03:31:22;4.30;;;2.92;;
35893;SDS011;21994;48.204;16.516;2022-07-05T03:33:48;5.25;;;3.42;;
35893;SDS011;21994;48.204;16.516;2022-07-05T03:36:13;7.57;;;2.85;;
35893;SDS011;21994;48.204;16.516;2022-07-05T03:38:39;6.05;;;2.45;;
35893;SDS011;21994;48.204;16.516;2022-07-05T03:41:05;7.43;;;2.78;;
35893;SDS011;21994;48.204;16.516;2022-07-05T03:43:31;5.63;;;2.83;;
35893;SDS011;21994;48.204;16.516;2022-07-05T03:45:58;5.20;;;3.03;;
35893;SDS011;21994;48.204;16.516;2022-07-05T03:48:24;7.22;;;2.38;;
35893;SDS011;21994;48.204;16.516;2022-07-05T03:50:49;5.90;;;2.65;;
35893;SDS011;21994;48.204;16.516;2022-07-05T03:53:15;5.22;;;2.53;;
35893;SDS011;21994;48.204;16.516;2022-07-05T03:55:41;3.15;;;2.40;;
35893;SDS011;21994;48.204;16.516;2022-07-05T03:58:08;4.53;;;2.58;;
35893;SDS011;21994;48.204;16.516;2022-07-05T04:00:34;4.40;;;2.70;;
35893;SDS011;21994;48.204;16.516;2022-07-05T04:03:00;4.15;;;2.70;;
35893;SDS011;21994;48.204;16.516;2022-07-05T04:05:26;4.55;;;3.03;;
35893;SDS011;21994;48.204;16.516;2022-07-05T04:07:53;6.97;;;2.95;;
35893;SDS011;21994;48.204;16.516;2022-07-05T04:10:20;3.65;;;2.88;;
35893;SDS011;21994;48.204;16.516;2022-07-05T04:12:47;5.68;;;3.17;;
35893;SDS011;21994;48.204;16.516;2022-07-05T04:15:13;4.43;;;2.88;;
35893;SDS011;21994;48.204;16.516;2022-07-05T04:17:49;3.40;;;2.67;;
35893;SDS011;21994;48.204;16.516;2022-07-05T04:20:19;3.53;;;2.75;;
35893;SDS011;21994;48.204;16.516;2022-07-05T04:22:48;7.75;;;3.35;;
35893;SDS011;21994;48.204;16.516;2022-07-05T04:25:14;6.85;;;3.78;;
35893;SDS011;21994;48.204;16.516;2022-07-05T04:27:48;5.22;;;3.00;;
35893;SDS011;21994;48.204;16.516;2022-07-05T04:30:19;5.93;;;2.90;;
35893;SDS011;21994;48.204;16.516;2022-07-05T04:32:48;6.60;;;2.70;;
35893;SDS011;21994;48.204;16.516;2022-07-05T04:35:14;4.15;;;2.45;;
35893;SDS011;21994;48.204;16.516;2022-07-05T04:37:42;5.85;;;3.20;;
35893;SDS011;21994;48.204;16.516;2022-07-05T04:40:09;5.18;;;2.40;;
35893;SDS011;21994;48.204;16.516;2022-07-05T04:42:37;3.63;;;2.50;;
35893;SDS011;21994;48.204;16.516;2022-07-05T04:45:04;3.10;;;2.22;;
35893;SDS011;21994;48.204;16.516;2022-07-05T04:47:31;3.17;;;2.05;;
35893;SDS011;21994;48.204;16.516;2022-07-05T04:50:06;4.30;;;2.45;;
35893;SDS011;21994;48.204;16.516;2022-07-05T04:52:32;5.35;;;2.03;;
35893;SDS011;21994;48.204;16.516;2022-07-05T04:54:58;3.47;;;2.30;;
35893;SDS011;21994;48.204;16.516;2022-07-05T04:57:24;2.95;;;1.95;;
35893;SDS011;21994;48.204;16.516;2022-07-05T04:59:50;2.75;;;2.05;;
35893;SDS011;21994;48.204;16.516;2022-07-05T05:02:16;6.07;;;2.08;;
35893;SDS011;21994;48.204;16.516;2022-07-05T05:04:42;2.42;;;1.77;;
35893;SDS011;21994;48.204;16.516;2022-07-05T05:07:08;1.92;;;1.52;;
35893;SDS011;21994;48.204;16.516;2022-07-05T05:09:34;3.83;;;2.00;;
35893;SDS011;21994;48.204;16.516;2022-07-05T05:12:01;3.38;;;1.88;;
35893;SDS011;21994;48.204;16.516;2022-07-05T05:14:27;6.05;;;2.78;;
35893;SDS011;21994;48.204;16.516;2022-07-05T05:16:53;4.15;;;2.28;;
35893;SDS011;21994;48.204;16.516;2022-07-05T05:19:19;3.53;;;1.80;;
35893;SDS011;21994;48.204;16.516;2022-07-05T05:21:45;3.55;;;1.85;;
35893;SDS011;21994;48.204;16.516;2022-07-05T05:24:11;3.05;;;1.90;;
35893;SDS011;21994;48.204;16.516;2022-07-05T05:26:37;2.80;;;1.65;;
35893;SDS011;21994;48.204;16.516;2022-07-05T05:29:03;3.55;;;1.80;;
35893;SDS011;21994;48.204;16.516;2022-07-05T05:31:29;4.65;;;1.73;;
35893;SDS011;21994;48.204;16.516;2022-07-05T05:33:55;2.78;;;1.33;;
35893;SDS011;21994;48.204;16.516;2022-07-05T05:36:20;2.38;;;1.45;;
35893;SDS011;21994;48.204;16.516;2022-07-05T05:38:46;2.08;;;1.33;;
35893;SDS011;21994;48.204;16.516;2022-07-05T05:41:12;5.90;;;1.73;;
35893;SDS011;21994;48.204;16.516;2022-07-05T05:43:38;2.47;;;1.80;;
35893;SDS011;21994;48.204;16.516;2022-07-05T05:46:05;3.92;;;1.50;;
35893;SDS011;21994;48.204;16.516;2022-07-05T05:48:30;1.45;;;1.35;;
35893;SDS011;21994;48.204;16.516;2022-07-05T05:50:56;2.38;;;1.30;;
35893;SDS011;21994;48.204;16.516;2022-07-05T05:53:22;2.55;;;1.60;;
35893;SDS011;21994;48.204;16.516;2022-07-05T05:55:48;5.10;;;1.63;;
35893;SDS011;21994;48.204;16.516;2022-07-05T05:58:20;2.65;;;1.60;;
35893;SDS011;21994;48.204;16.516;2022-07-05T06:00:48;2.88;;;1.50;;
35893;SDS011;21994;48.204;16.516;2022-07-05T06:03:24;3.60;;;1.52;;
35893;SDS011;21994;48.204;16.516;2022-07-05T06:05:52;2.05;;;1.30;;
35893;SDS011;21994;48.204;16.516;2022-07-05T06:08:18;3.08;;;1.88;;
35893;SDS011;21994;48.204;16.516;2022-07-05T06:10:45;6.40;;;2.10;;
35893;SDS011;21994;48.204;16.516;2022-07-05T06:13:12;2.67;;;1.85;;
35893;SDS011;21994;48.204;16.516;2022-07-05T06:15:39;4.10;;;1.77;;
35893;SDS011;21994;48.204;16.516;2022-07-05T06:18:07;2.22;;;1.52;;
35893;SDS011;21994;48.204;16.516;2022-07-05T06:20:35;2.95;;;2.00;;
35893;SDS011;21994;48.204;16.516;2022-07-05T06:23:02;2.65;;;1.65;;
35893;SDS011;21994;48.204;16.516;2022-07-05T06:25:31;3.42;;;1.95;;
35893;SDS011;21994;48.204;16.516;2022-07-05T06:28:01;2.58;;;1.90;;
35893;SDS011;21994;48.204;16.516;2022-07-05T06:30:30;2.80;;;1.55;;
35893;SDS011;21994;48.204;16.516;2022-07-05T06:32:59;2.55;;;1.60;;
35893;SDS011;21994;48.204;16.516;2022-07-05T06:35:26;3.80;;;2.47;;
35893;SDS011;21994;48.204;16.516;2022-07-05T06:40:36;3.97;;;2.13;;
35893;SDS011;21994;48.204;16.516;2022-07-05T06:43:10;3.65;;;2.50;;
35893;SDS011;21994;48.204;16.516;2022-07-05T06:45:38;3.45;;;1.90;;
35893;SDS011;21994;48.204;16.516;2022-07-05T06:48:05;3.67;;;1.88;;
35893;SDS011;21994;48.204;16.516;2022-07-05T06:50:34;2.60;;;1.92;;
35893;SDS011;21994;48.204;16.516;2022-07-05T06:53:05;3.30;;;1.90;;
35893;SDS011;21994;48.204;16.516;2022-07-05T06:55:32;4.70;;;2.53;;
35893;SDS011;21994;48.204;16.516;2022-07-05T06:58:04;4.68;;;2.88;;
35893;SDS011;21994;48.204;16.516;2022-07-05T07:00:32;3.42;;;2.28;;
35893;SDS011;21994;48.204;16.516;2022-07-05T07:03:00;4.78;;;2.70;;
35893;SDS011;21994;48.204;16.516;2022-07-05T07:05:26;3.67;;;2.38;;
35893;SDS011;21994;48.204;16.516;2022-07-05T07:07:52;5.65;;;2.28;;
35893;SDS011;21994;48.204;16.516;2022-07-05T07:10:37;3.72;;;2.80;;
35893;SDS011;21994;48.204;16.516;2022-07-05T07:13:03;3.60;;;2.75;;
35893;SDS011;21994;48.204;16.516;2022-07-05T07:15:30;4.53;;;2.65;;
35893;SDS011;21994;48.204;16.516;2022-07-05T07:17:58;4.25;;;2.78;;
35893;SDS011;21994;48.204;16.516;2022-07-05T07:20:25;5.18;;;3.13;;
35893;SDS011;21994;48.204;16.516;2022-07-05T07:22:51;3.38;;;2.65;;
35893;SDS011;21994;48.204;16.516;2022-07-05T07:25:17;5.68;;;3.03;;
35893;SDS011;21994;48.204;16.516;2022-07-05T07:27:46;5.50;;;2.90;;
35893;SDS011;21994;48.204;16.516;2022-07-05T07:30:15;3.88;;;2.58;;
35893;SDS011;21994;48.204;16.516;2022-07-05T07:32:44;4.65;;;2.80;;
35893;SDS011;21994;48.204;16.516;2022-07-05T07:35:10;3.35;;;2.13;;
35893;SDS011;21994;48.204;16.516;2022-07-05T07:37:37;3.42;;;2.47;;
35893;SDS011;21994;48.204;16.516;2022-07-05T07:40:03;3.42;;;2.30;;
35893;SDS011;21994;48.204;16.516;2022-07-05T07:42:30;3.17;;;2.13;;
35893;SDS011;21994;48.204;16.516;2022-07-05T07:44:56;4.40;;;2.55;;
35893;SDS011;21994;48.204;16.516;2022-07-05T07:47:23;3.42;;;1.95;;
35893;SDS011;21994;48.204;16.516;2022-07-05T07:49:49;3.45;;;2.30;;
35893;SDS011;21994;48.204;16.516;2022-07-05T07:52:15;5.05;;;1.90;;
35893;SDS011;21994;48.204;16.516;2022-07-05T07:54:41;3.88;;;2.08;;
35893;SDS011;21994;48.204;16.516;2022-07-05T07:57:07;3.72;;;2.10;;
35893;SDS011;21994;48.204;16.516;2022-07-05T07:59:33;3.42;;;1.90;;
35893;SDS011;21994;48.204;16.516;2022-07-05T08:02:00;2.33;;;2.00;;
35893;SDS011;21994;48.204;16.516;2022-07-05T08:04:26;2.70;;;1.90;;
35893;SDS011;21994;48.204;16.516;2022-07-05T08:06:52;5.03;;;2.47;;
35893;SDS011;21994;48.204;16.516;2022-07-05T08:09:17;2.35;;;1.50;;
35893;SDS011;21994;48.204;16.516;2022-07-05T08:11:47;2.13;;;1.55;;
35893;SDS011;21994;48.204;16.516;2022-07-05T08:14:17;2.58;;;1.65;;
35893;SDS011;21994;48.204;16.516;2022-07-05T08:16:44;3.78;;;1.70;;
35893;SDS011;21994;48.204;16.516;2022-07-05T08:19:12;2.72;;;1.73;;
35893;SDS011;21994;48.204;16.516;2022-07-05T08:21:56;3.28;;;1.70;;
35893;SDS011;21994;48.204;16.516;2022-07-05T08:24:22;1.63;;;1.20;;
35893;SDS011;21994;48.204;16.516;2022-07-05T08:26:48;1.80;;;1.30;;
35893;SDS011;21994;48.204;16.516;2022-07-05T08:29:14;2.00;;;1.65;;
35893;SDS011;21994;48.204;16.516;2022-07-05T08:31:45;2.45;;;1.50;;
35893;SDS011;21994;48.204;16.516;2022-07-05T08:34:14;1.40;;;1.30;;
35893;SDS011;21994;48.204;16.516;2022-07-05T08:36:43;2.45;;;1.63;;
35893;SDS011;21994;48.204;16.516;2022-07-05T08:39:10;1.65;;;1.40;;
35893;SDS011;21994;48.204;16.516;2022-07-05T08:41:37;2.53;;;1.42;;
35893;SDS011;21994;48.204;16.516;2022-07-05T08:44:06;1.58;;;1.20;;
35893;SDS011;21994;48.204;16.516;2022-07-05T08:46:33;1.80;;;1.30;;
35893;SDS011;21994;48.204;16.516;2022-07-05T08:49:04;1.27;;;1.10;;
35893;SDS011;21994;48.204;16.516;2022-07-05T08:51:32;2.35;;;1.60;;
35893;SDS011;21994;48.204;16.516;2022-07-05T08:54:03;1.95;;;1.27;;
35893;SDS011;21994;48.204;16.516;2022-07-05T08:56:30;1.77;;;1.13;;
35893;SDS011;21994;48.204;16.516;2022-07-05T08:58:56;1.92;;;1.33;;
35893;SDS011;21994;48.204;16.516;2022-07-05T09:01:22;1.70;;;1.30;;
35893;SDS011;21994;48.204;16.516;2022-07-05T09:03:51;2.42;;;1.60;;
35893;SDS011;21994;48.204;16.516;2022-07-05T09:06:18;1.20;;;1.10;;
35893;SDS011;21994;48.204;16.516;2022-07-05T09:08:47;2.17;;;1.35;;
35893;SDS011;21994;48.204;16.516;2022-07-05T09:11:17;1.92;;;1.35;;
35893;SDS011;21994;48.204;16.516;2022-07-05T09:13:54;2.13;;;1.00;;
35893;SDS011;21994;48.204;16.516;2022-07-05T09:16:19;1.77;;;1.25;;
35893;SDS011;21994;48.204;16.516;2022-07-05T09:18:47;2.08;;;1.17;;
35893;SDS011;21994;48.204;16.516;2022-07-05T09:21:27;2.40;;;1.40;;
35893;SDS011;21994;48.204;16.516;2022-07-05T09:26:44;3.17;;;1.05;;
35893;SDS011;21994;48.204;16.516;2022-07-05T09:29:17;2.35;;;1.27;;
35893;SDS011;21994;48.204;16.516;2022-07-05T09:31:45;1.90;;;1.48;;
35893;SDS011;21994;48.204;16.516;2022-07-05T09:34:20;1.73;;;1.20;;
35893;SDS011;21994;48.204;16.516;2022-07-05T09:36:51;2.08;;;1.25;;
35893;SDS011;21994;48.204;16.516;2022-07-05T09:42:09;1.90;;;1.33;;
35893;SDS011;21994;48.204;16.516;2022-07-05T09:44:55;1.45;;;1.13;;
35893;SDS011;21994;48.204;16.516;2022-07-05T09:47:31;3.78;;;1.25;;
35893;SDS011;21994;48.204;16.516;2022-07-05T09:49:57;1.27;;;1.10;;
35893;SDS011;21994;48.204;16.516;2022-07-05T09:52:33;2.70;;;1.60;;
35893;SDS011;21994;48.204;16.516;2022-07-05T09:55:01;1.95;;;1.38;;
35893;SDS011;21994;48.204;16.516;2022-07-05T09:57:28;3.17;;;1.27;;
35893;SDS011;21994;48.204;16.516;2022-07-05T10:05:11;3.30;;;1.25;;
35893;SDS011;21994;48.204;16.516;2022-07-05T10:07:39;3.03;;;1.38;;
35893;SDS011;21994;48.204;16.516;2022-07-05T10:10:11;1.37;;;1.20;;
35893;SDS011;21994;48.204;16.516;2022-07-05T10:12:39;1.60;;;1.13;;
35893;SDS011;21994;48.204;16.516;2022-07-05T10:15:07;4.03;;;1.67;;
35893;SDS011;21994;48.204;16.516;2022-07-05T10:17:37;1.63;;;0.98;;
35893;SDS011;21994;48.204;16.516;2022-07-05T10:20:16;2.47;;;1.15;;
35893;SDS011;21994;48.204;16.516;2022-07-05T10:22:49;1.67;;;1.23;;
35893;SDS011;21994;48.204;16.516;2022-07-05T10:25:15;1.92;;;1.30;;
35893;SDS011;21994;48.204;16.516;2022-07-05T10:27:41;1.63;;;1.30;;
35893;SDS011;21994;48.204;16.516;2022-07-05T10:30:08;5.80;;;1.77;;
35893;SDS011;21994;48.204;16.516;2022-07-05T10:32:38;1.33;;;1.13;;
35893;SDS011;21994;48.204;16.516;2022-07-05T10:35:05;1.55;;;1.25;;
35893;SDS011;21994;48.204;16.516;2022-07-05T10:37:32;1.17;;;1.08;;
35893;SDS011;21994;48.204;16.516;2022-07-05T10:40:00;1.98;;;1.27;;
35893;SDS011;21994;48.204;16.516;2022-07-05T10:43:12;2.22;;;1.40;;
35893;SDS011;21994;48.204;16.516;2022-07-05T10:53:25;2.15;;;1.42;;
35893;SDS011;21994;48.204;16.516;2022-07-05T10:56:11;1.23;;;1.00;;
35893;SDS011;21994;48.204;16.516;2022-07-05T10:58:39;1.88;;;1.50;;
35893;SDS011;21994;48.204;16.516;2022-07-05T11:03:41;3.08;;;1.17;;
35893;SDS011;21994;48.204;16.516;2022-07-05T11:06:24;1.75;;;1.40;;
35893;SDS011;21994;48.204;16.516;2022-07-05T11:14:02;1.77;;;1.50;;
35893;SDS011;21994;48.204;16.516;2022-07-05T11:16:30;3.17;;;1.50;;
35893;SDS011;21994;48.204;16.516;2022-07-05T11:19:11;2.25;;;1.30;;
35893;SDS011;21994;48.204;16.516;2022-07-05T11:22:03;1.40;;;1.15;;
35893;SDS011;21994;48.204;16.516;2022-07-05T11:24:31;1.40;;;1.20;;
35893;SDS011;21994;48.204;16.516;2022-07-05T11:27:03;1.77;;;1.30;;
35893;SDS011;21994;48.204;16.516;2022-07-05T11:29:45;2.47;;;1.30;;
35893;SDS011;21994;48.204;16.516;2022-07-05T11:32:12;4.55;;;2.13;;
35893;SDS011;21994;48.204;16.516;2022-07-05T11:34:39;1.90;;;1.38;;
35893;SDS011;21994;48.204;16.516;2022-07-05T11:39:39;1.45;;;1.15;;
35893;SDS011;21994;48.204;16.516;2022-07-05T11:42:09;2.60;;;1.67;;
35893;SDS011;21994;48.204;16.516;2022-07-05T11:44:37;1.58;;;1.30;;
35893;SDS011;21994;48.204;16.516;2022-07-05T11:47:05;2.85;;;1.25;;
35893;SDS011;21994;48.204;16.516;2022-07-05T11:49:32;1.90;;;1.42;;
35893;SDS011;21994;48.204;16.516;2022-07-05T11:51:59;2.28;;;1.77;;
35893;SDS011;21994;48.204;16.516;2022-07-05T11:54:27;2.97;;;1.80;;
35893;SDS011;21994;48.204;16.516;2022-07-05T11:56:55;2.83;;;2.00;;
35893;SDS011;21994;48.204;16.516;2022-07-05T11:59:21;1.92;;;1.52;;
35893;SDS011;21994;48.204;16.516;2022-07-05T12:01:49;3.22;;;1.52;;
35893;SDS011;21994;48.204;16.516;2022-07-05T12:06:55;2.90;;;1.60;;
35893;SDS011;21994;48.204;16.516;2022-07-05T12:09:29;3.05;;;1.92;;
35893;SDS011;21994;48.204;16.516;2022-07-05T12:12:20;2.53;;;1.52;;
35893;SDS011;21994;48.204;16.516;2022-07-05T12:15:07;2.30;;;1.67;;
35893;SDS011;21994;48.204;16.516;2022-07-05T12:17:45;2.55;;;1.70;;
35893;SDS011;21994;48.204;16.516;2022-07-05T12:20:23;2.72;;;1.42;;
35893;SDS011;21994;48.204;16.516;2022-07-05T12:22:50;2.38;;;1.85;;
35893;SDS011;21994;48.204;16.516;2022-07-05T12:25:17;2.65;;;2.00;;
35893;SDS011;21994;48.204;16.516;2022-07-05T12:27:46;2.88;;;2.00;;
35893;SDS011;21994;48.204;16.516;2022-07-05T12:30:15;3.72;;;1.90;;
35893;SDS011;21994;48.204;16.516;2022-07-05T12:35:41;3.70;;;1.95;;
35893;SDS011;21994;48.204;16.516;2022-07-05T12:38:10;5.70;;;2.22;;
35893;SDS011;21994;48.204;16.516;2022-07-05T12:43:09;2.65;;;1.80;;
35893;SDS011;21994;48.204;16.516;2022-07-05T12:45:43;2.30;;;2.10;;
35893;SDS011;21994;48.204;16.516;2022-07-05T12:48:33;3.03;;;2.10;;
35893;SDS011;21994;48.204;16.516;2022-07-05T12:51:04;2.50;;;1.85;;
35893;SDS011;21994;48.204;16.516;2022-07-05T12:53:32;3.40;;;2.38;;
35893;SDS011;21994;48.204;16.516;2022-07-05T12:56:21;3.35;;;2.28;;
35893;SDS011;21994;48.204;16.516;2022-07-05T12:59:08;2.53;;;2.00;;
35893;SDS011;21994;48.204;16.516;2022-07-05T13:01:42;2.45;;;2.10;;
35893;SDS011;21994;48.204;16.516;2022-07-05T13:04:12;3.35;;;2.03;;
35893;SDS011;21994;48.204;16.516;2022-07-05T13:09:16;4.32;;;2.35;;
35893;SDS011;21994;48.204;16.516;2022-07-05T13:14:49;2.97;;;2.30;;
35893;SDS011;21994;48.204;16.516;2022-07-05T13:17:19;2.92;;;2.50;;
35893;SDS011;21994;48.204;16.516;2022-07-05T13:19:47;3.22;;;2.53;;
35893;SDS011;21994;48.204;16.516;2022-07-05T13:22:15;3.20;;;2.38;;
35893;SDS011;21994;48.204;16.516;2022-07-05T13:24:41;5.97;;;3.00;;
35893;SDS011;21994;48.204;16.516;2022-07-05T13:27:09;3.30;;;2.33;;
35893;SDS011;21994;48.204;16.516;2022-07-05T13:29:36;3.63;;;2.95;;
35893;SDS011;21994;48.204;16.516;2022-07-05T13:32:03;3.38;;;2.95;;
35893;SDS011;21994;48.204;16.516;2022-07-05T13:34:30;3.78;;;2.33;;
35893;SDS011;21994;48.204;16.516;2022-07-05T13:36:57;2.70;;;2.42;;
35893;SDS011;21994;48.204;16.516;2022-07-05T13:39:24;6.10;;;2.75;;
35893;SDS011;21994;48.204;16.516;2022-07-05T13:41:51;3.80;;;2.85;;
35893;SDS011;21994;48.204;16.516;2022-07-05T13:44:19;3.42;;;2.53;;
35893;SDS011;21994;48.204;16.516;2022-07-05T13:46:46;3.67;;;2.45;;
35893;SDS011;21994;48.204;16.516;2022-07-05T13:49:12;4.50;;;2.67;;
35893;SDS011;21994;48.204;16.516;2022-07-05T13:51:38;4.50;;;2.47;;
35893;SDS011;21994;48.204;16.516;2022-07-05T13:54:04;2.88;;;2.47;;
35893;SDS011;21994;48.204;16.516;2022-07-05T13:56:31;2.85;;;2.42;;
35893;SDS011;21994;48.204;16.516;2022-07-05T13:58:57;2.60;;;2.40;;
35893;SDS011;21994;48.204;16.516;2022-07-05T14:01:24;4.38;;;2.30;;
35893;SDS011;21994;48.204;16.516;2022-07-05T14:03:54;3.83;;;2.85;;
35893;SDS011;21994;48.204;16.516;2022-07-05T14:06:22;3.47;;;2.60;;
35893;SDS011;21994;48.204;16.516;2022-07-05T14:08:48;4.18;;;2.85;;
35893;SDS011;21994;48.204;16.516;2022-07-05T14:11:14;3.05;;;2.55;;
35893;SDS011;21994;48.204;16.516;2022-07-05T14:13:40;4.40;;;2.67;;
35893;SDS011;21994;48.204;16.516;2022-07-05T14:16:07;3.13;;;2.60;;
35893;SDS011;21994;48.204;16.516;2022-07-05T14:18:33;4.03;;;2.90;;
35893;SDS011;21994;48.204;16.516;2022-07-05T14:20:59;4.28;;;2.70;;
35893;SDS011;21994;48.204;16.516;2022-07-05T14:23:25;4.28;;;2.92;;
35893;SDS011;21994;48.204;16.516;2022-07-05T14:25:51;6.22;;;3.17;;
35893;SDS011;21994;48.204;16.516;2022-07-05T14:28:17;3.15;;;2.67;;
35893;SDS011;21994;48.204;16.516;2022-07-05T14:30:44;4.40;;;3.00;;
35893;SDS011;21994;48.204;16.516;2022-07-05T14:33:11;4.05;;;2.92;;
35893;SDS011;21994;48.204;16.516;2022-07-05T14:35:39;4.28;;;2.90;;
35893;SDS011;21994;48.204;16.516;2022-07-05T14:38:06;5.15;;;2.67;;
35893;SDS011;21994;48.204;16.516;2022-07-05T14:40:33;3.20;;;2.20;;
35893;SDS011;21994;48.204;16.516;2022-07-05T14:42:59;2.75;;;2.47;;
35893;SDS011;21994;48.204;16.516;2022-07-05T14:45:26;3.42;;;2.80;;
35893;SDS011;21994;48.204;16.516;2022-07-05T14:47:53;4.03;;;3.15;;
35893;SDS011;21994;48.204;16.516;2022-07-05T14:50:19;4.10;;;2.80;;
35893;SDS011;21994;48.204;16.516;2022-07-05T14:52:46;5.05;;;3.85;;
35893;SDS011;21994;48.204;16.516;2022-07-05T14:55:13;4.75;;;3.05;;
35893;SDS011;21994;48.204;16.516;2022-07-05T14:57:40;5.13;;;3.30;;
35893;SDS011;21994;48.204;16.516;2022-07-05T15:00:07;3.70;;;3.05;;
35893;SDS011;21994;48.204;16.516;2022-07-05T15:02:36;3.97;;;3.33;;
35893;SDS011;21994;48.204;16.516;2022-07-05T15:05:03;4.22;;;3.10;;
35893;SDS011;21994;48.204;16.516;2022-07-05T15:07:30;4.57;;;3.28;;
35893;SDS011;21994;48.204;16.516;2022-07-05T15:09:56;4.15;;;3.00;;
35893;SDS011;21994;48.204;16.516;2022-07-05T15:12:22;5.95;;;3.42;;
35893;SDS011;21994;48.204;16.516;2022-07-05T15:14:48;5.13;;;3.88;;
35893;SDS011;21994;48.204;16.516;2022-07-05T15:17:14;5.20;;;3.90;;
35893;SDS011;21994;48.204;16.516;2022-07-05T15:19:40;6.18;;;4.35;;
35893;SDS011;21994;48.204;16.516;2022-07-05T15:22:06;5.25;;;3.97;;
35893;SDS011;21994;48.204;16.516;2022-07-05T15:24:33;4.47;;;3.75;;
35893;SDS011;21994;48.204;16.516;2022-07-05T15:27:00;4.00;;;3.60;;
35893;SDS011;21994;48.204;16.516;2022-07-05T15:29:26;5.40;;;4.15;;